createdAt,value
2019-04-07T00:00:32.972Z,13.97
2019-04-07T00:01:32.961Z,14.03
2019-04-07T00:02:33.083Z,13.98
2019-04-07T00:03:33.311Z,13.96
2019-04-07T00:04:33.041Z,13.98
2019-04-07T00:05:33.369Z,13.97
2019-04-07T00:06:32.873Z,13.93
2019-04-07T00:07:34.531Z,14.00
2019-04-07T00:08:32.959Z,13.85
2019-04-07T00:09:34.410Z,13.83
2019-04-07T00:10:32.805Z,13.85
2019-04-07T00:11:32.789Z,13.90
2019-04-07T00:12:32.775Z,13.83
2019-04-07T00:13:32.772Z,13.75
2019-04-07T00:14:32.943Z,13.91
2019-04-07T00:15:33.272Z,13.80
2019-04-07T00:16:35.739Z,13.80
2019-04-07T00:17:32.687Z,13.78
2019-04-07T00:18:32.670Z,13.78
2019-04-07T00:19:33.882Z,13.76
2019-04-07T00:20:32.640Z,13.71
2019-04-07T00:21:33.163Z,13.68
2019-04-07T00:22:32.599Z,13.68
2019-04-07T00:23:32.930Z,13.64
2019-04-07T00:24:33.182Z,13.68
2019-04-07T00:25:32.550Z,13.63
2019-04-07T00:26:32.534Z,13.60
2019-04-07T00:27:32.515Z,13.64
2019-04-07T00:28:32.562Z,13.61
2019-04-07T00:29:32.599Z,13.57
2019-04-07T00:30:32.468Z,13.58
2019-04-07T00:31:32.451Z,13.64
2019-04-07T00:32:32.791Z,13.60
2019-04-07T00:33:32.418Z,13.63
2019-04-07T00:34:32.403Z,13.58
2019-04-07T00:35:33.568Z,13.54
2019-04-07T00:36:32.879Z,13.57
2019-04-07T00:37:32.752Z,13.54
2019-04-07T00:38:32.558Z,13.51
2019-04-07T00:39:32.356Z,13.49
2019-04-07T00:40:32.313Z,13.49
2019-04-07T00:41:32.282Z,13.49
2019-04-07T00:42:32.612Z,13.49
2019-04-07T00:43:32.248Z,13.51
2019-04-07T00:44:32.786Z,13.47
2019-04-07T00:45:32.214Z,13.49
2019-04-07T00:46:32.286Z,13.42
2019-04-07T00:47:32.313Z,13.43
2019-04-07T00:48:32.163Z,13.43
2019-04-07T00:49:32.297Z,13.45
2019-04-07T00:50:32.667Z,13.45
2019-04-07T00:51:32.109Z,13.42
2019-04-07T00:52:32.675Z,13.43
2019-04-07T00:53:32.081Z,13.42
2019-04-07T00:54:32.657Z,13.43
2019-04-07T00:55:32.180Z,13.30
2019-04-07T00:56:32.022Z,13.38
2019-04-07T00:57:32.004Z,13.32
2019-04-07T00:58:31.987Z,13.36
2019-04-07T00:59:32.050Z,13.32
2019-04-07T01:00:32.414Z,13.40
2019-04-07T01:01:31.938Z,13.38
2019-04-07T01:02:32.266Z,13.32
2019-04-07T01:03:31.905Z,13.26
2019-04-07T01:04:31.959Z,13.26
2019-04-07T01:05:36.706Z,13.30
2019-04-07T01:06:32.027Z,13.24
2019-04-07T01:07:31.834Z,13.24
2019-04-07T01:08:32.583Z,13.20
2019-04-07T01:09:32.007Z,13.24
2019-04-07T01:10:31.782Z,13.20
2019-04-07T01:11:32.095Z,13.27
2019-04-07T01:12:31.745Z,13.19
2019-04-07T01:13:31.995Z,13.24
2019-04-07T01:14:31.716Z,13.17
2019-04-07T01:15:31.696Z,13.16
2019-04-07T01:16:31.675Z,13.21
2019-04-07T01:17:31.824Z,13.19
2019-04-07T01:18:31.800Z,13.27
2019-04-07T01:19:31.629Z,13.13
2019-04-07T01:20:31.756Z,13.23
2019-04-07T01:21:31.594Z,13.24
2019-04-07T01:22:31.887Z,13.20
2019-04-07T01:23:31.559Z,13.14
2019-04-07T01:24:31.540Z,13.16
2019-04-07T01:25:31.538Z,13.13
2019-04-07T01:26:31.825Z,13.16
2019-04-07T01:27:31.488Z,13.16
2019-04-07T01:28:31.687Z,13.17
2019-04-07T01:29:32.075Z,13.08
2019-04-07T01:30:31.567Z,13.02
2019-04-07T01:31:31.418Z,13.01
2019-04-07T01:32:31.426Z,12.98
2019-04-07T01:33:31.480Z,12.96
2019-04-07T01:34:31.554Z,12.99
2019-04-07T01:35:31.917Z,13.01
2019-04-07T01:36:31.673Z,12.96
2019-04-07T01:37:31.637Z,13.01
2019-04-07T01:38:31.298Z,12.96
2019-04-07T01:39:31.517Z,13.01
2019-04-07T01:40:31.260Z,12.93
2019-04-07T01:41:31.753Z,12.96
2019-04-07T01:42:31.225Z,12.91
2019-04-07T01:43:31.770Z,13.04
2019-04-07T01:44:31.196Z,12.95
2019-04-07T01:45:31.817Z,12.96
2019-04-07T01:46:31.720Z,12.95
2019-04-07T01:47:31.139Z,12.95
2019-04-07T01:48:31.458Z,12.93
2019-04-07T01:49:31.351Z,12.96
2019-04-07T01:50:31.335Z,13.01
2019-04-07T01:51:31.106Z,13.04
2019-04-07T01:52:31.606Z,12.96
2019-04-07T01:53:31.031Z,12.96
2019-04-07T01:54:31.015Z,12.90
2019-04-07T01:55:31.091Z,12.96
2019-04-07T01:56:31.191Z,13.02
2019-04-07T01:57:32.331Z,12.96
2019-04-07T01:58:30.946Z,12.90
2019-04-07T01:59:31.055Z,12.99
2019-04-07T02:00:31.624Z,13.04
2019-04-07T02:01:31.330Z,12.90
2019-04-07T02:02:31.109Z,12.95
2019-04-07T02:03:30.902Z,13.01
2019-04-07T02:04:30.876Z,13.01
2019-04-07T02:05:30.976Z,12.95
2019-04-07T02:06:31.117Z,12.95
2019-04-07T02:07:30.911Z,12.90
2019-04-07T02:08:30.868Z,12.84
2019-04-07T02:09:31.439Z,12.87
2019-04-07T02:10:30.737Z,12.81
2019-04-07T02:11:30.911Z,12.83
2019-04-07T02:12:31.350Z,12.84
2019-04-07T02:13:30.687Z,12.83
2019-04-07T02:14:31.251Z,12.79
2019-04-07T02:15:30.647Z,12.79
2019-04-07T02:16:31.286Z,12.80
2019-04-07T02:17:30.618Z,12.86
2019-04-07T02:18:31.317Z,12.81
2019-04-07T02:19:30.591Z,12.86
2019-04-07T02:20:31.170Z,12.81
2019-04-07T02:21:30.552Z,12.77
2019-04-07T02:22:31.215Z,12.80
2019-04-07T02:23:30.506Z,12.80
2019-04-07T02:24:30.885Z,12.80
2019-04-07T02:25:30.469Z,12.83
2019-04-07T02:26:31.004Z,12.87
2019-04-07T02:27:33.496Z,12.79
2019-04-07T02:28:30.817Z,12.76
2019-04-07T02:29:30.398Z,12.73
2019-04-07T02:30:30.952Z,12.72
2019-04-07T02:31:30.364Z,12.69
2019-04-07T02:32:31.261Z,12.71
2019-04-07T02:33:31.029Z,12.63
2019-04-07T02:34:30.310Z,12.62
2019-04-07T02:35:30.295Z,12.65
2019-04-07T02:36:31.724Z,12.66
2019-04-07T02:37:30.987Z,12.66
2019-04-07T02:38:30.250Z,12.65
2019-04-07T02:39:30.227Z,12.63
2019-04-07T02:40:31.167Z,12.62
2019-04-07T02:41:30.560Z,12.58
2019-04-07T02:42:30.468Z,12.65
2019-04-07T02:43:31.014Z,12.55
2019-04-07T02:44:30.217Z,12.54
2019-04-07T02:45:30.349Z,12.47
2019-04-07T02:46:31.282Z,12.46
2019-04-07T02:47:31.150Z,12.48
2019-04-07T02:48:30.075Z,12.54
2019-04-07T02:49:30.276Z,12.38
2019-04-07T02:50:30.217Z,12.50
2019-04-07T02:51:30.020Z,12.46
2019-04-07T02:52:30.852Z,12.47
2019-04-07T02:53:30.854Z,12.43
2019-04-07T02:54:30.267Z,12.44
2019-04-07T02:55:30.141Z,12.46
2019-04-07T02:56:29.921Z,12.44
2019-04-07T02:57:29.903Z,12.32
2019-04-07T02:58:29.890Z,12.38
2019-04-07T02:59:29.866Z,12.44
2019-04-07T03:00:29.847Z,12.32
2019-04-07T03:01:31.052Z,12.32
2019-04-07T03:02:30.332Z,12.30
2019-04-07T03:03:29.793Z,12.35
2019-04-07T03:04:29.779Z,12.28
2019-04-07T03:05:29.789Z,12.30
2019-04-07T03:06:45.360Z,12.30
2019-04-07T03:07:29.728Z,12.22
2019-04-07T03:08:30.231Z,12.22
2019-04-07T03:09:29.974Z,12.26
2019-04-07T03:10:29.668Z,12.21
2019-04-07T03:11:29.654Z,12.23
2019-04-07T03:12:29.634Z,12.18
2019-04-07T03:13:30.291Z,12.17
2019-04-07T03:14:30.195Z,12.14
2019-04-07T03:15:29.579Z,12.17
2019-04-07T03:16:29.559Z,12.15
2019-04-07T03:17:29.834Z,12.21
2019-04-07T03:18:29.524Z,12.15
2019-04-07T03:19:29.892Z,12.15
2019-04-07T03:20:29.673Z,12.22
2019-04-07T03:21:29.473Z,12.18
2019-04-07T03:22:29.452Z,12.22
2019-04-07T03:23:29.439Z,12.23
2019-04-07T03:24:29.415Z,12.22
2019-04-07T03:25:29.409Z,12.21
2019-04-07T03:26:29.441Z,12.25
2019-04-07T03:27:30.244Z,12.28
2019-04-07T03:28:30.378Z,12.26
2019-04-07T03:29:29.333Z,12.21
2019-04-07T03:30:32.581Z,12.21
2019-04-07T03:31:30.109Z,12.18
2019-04-07T03:32:30.438Z,12.25
2019-04-07T03:33:30.777Z,12.17
2019-04-07T03:34:32.641Z,12.15
2019-04-07T03:35:32.833Z,12.18
2019-04-07T03:36:30.403Z,12.17
2019-04-07T03:37:36.296Z,12.15
2019-04-07T03:38:29.300Z,12.07
2019-04-07T03:39:30.115Z,12.08
2019-04-07T03:40:30.183Z,12.11
2019-04-07T03:41:29.236Z,11.96
2019-04-07T03:42:29.810Z,12.03
2019-04-07T03:43:29.152Z,12.00
2019-04-07T03:44:29.231Z,11.99
2019-04-07T03:45:29.038Z,11.84
2019-04-07T03:46:29.017Z,11.87
2019-04-07T03:47:28.996Z,11.93
2019-04-07T03:48:28.981Z,11.85
2019-04-07T03:49:29.553Z,11.84
2019-04-07T03:50:29.574Z,11.80
2019-04-07T03:51:30.007Z,11.71
2019-04-07T03:52:28.914Z,11.87
2019-04-07T03:53:28.893Z,11.76
2019-04-07T03:54:28.883Z,11.80
2019-04-07T03:55:28.855Z,11.73
2019-04-07T03:56:28.835Z,11.70
2019-04-07T03:57:28.818Z,11.70
2019-04-07T03:58:28.805Z,11.73
2019-04-07T03:59:29.018Z,11.74
2019-04-07T04:00:29.156Z,11.74
2019-04-07T04:01:29.747Z,11.70
2019-04-07T04:02:29.334Z,11.70
2019-04-07T04:03:28.790Z,11.64
2019-04-07T04:04:28.703Z,11.74
2019-04-07T04:05:29.597Z,11.73
2019-04-07T04:06:28.655Z,11.73
2019-04-07T04:07:34.556Z,11.73
2019-04-07T04:08:28.808Z,11.77
2019-04-07T04:09:28.623Z,11.79
2019-04-07T04:10:28.945Z,11.76
2019-04-07T04:11:28.719Z,11.70
2019-04-07T04:12:28.549Z,11.85
2019-04-07T04:13:29.132Z,11.73
2019-04-07T04:14:29.477Z,11.85
2019-04-07T04:15:28.487Z,11.88
2019-04-07T04:16:28.623Z,11.76
2019-04-07T04:17:28.489Z,11.80
2019-04-07T04:18:28.740Z,11.77
2019-04-07T04:19:28.788Z,11.74
2019-04-07T04:20:28.398Z,11.73
2019-04-07T04:21:28.862Z,11.73
2019-04-07T04:22:29.299Z,11.69
2019-04-07T04:23:28.548Z,11.73
2019-04-07T04:24:28.445Z,11.73
2019-04-07T04:25:28.304Z,11.67
2019-04-07T04:26:28.973Z,11.69
2019-04-07T04:27:28.299Z,11.64
2019-04-07T04:28:29.093Z,11.66
2019-04-07T04:29:28.231Z,11.62
2019-04-07T04:30:28.217Z,11.69
2019-04-07T04:31:29.490Z,11.58
2019-04-07T04:32:28.751Z,11.62
2019-04-07T04:33:28.168Z,11.64
2019-04-07T04:34:28.458Z,11.61
2019-04-07T04:35:28.124Z,11.64
2019-04-07T04:36:28.103Z,11.55
2019-04-07T04:37:39.942Z,11.59
2019-04-07T04:38:28.381Z,11.52
2019-04-07T04:39:28.047Z,11.56
2019-04-07T04:40:28.182Z,11.59
2019-04-07T04:41:28.009Z,11.59
2019-04-07T04:42:28.882Z,11.54
2019-04-07T04:43:27.977Z,11.56
2019-04-07T04:44:28.425Z,11.55
2019-04-07T04:45:27.947Z,11.49
2019-04-07T04:46:27.918Z,11.51
2019-04-07T04:47:27.901Z,11.51
2019-04-07T04:48:27.947Z,11.46
2019-04-07T04:49:28.818Z,11.54
2019-04-07T04:50:27.849Z,11.40
2019-04-07T04:51:28.179Z,11.49
2019-04-07T04:52:27.844Z,11.52
2019-04-07T04:53:28.991Z,11.51
2019-04-07T04:54:27.890Z,11.45
2019-04-07T04:55:27.751Z,11.51
2019-04-07T04:56:28.789Z,11.52
2019-04-07T04:57:28.344Z,11.52
2019-04-07T04:58:28.836Z,11.48
2019-04-07T04:59:27.931Z,11.52
2019-04-07T05:00:28.488Z,11.46
2019-04-07T05:01:27.647Z,11.54
2019-04-07T05:02:27.738Z,11.38
2019-04-07T05:03:27.608Z,11.48
2019-04-07T05:04:28.125Z,11.34
2019-04-07T05:05:28.063Z,11.34
2019-04-07T05:06:27.782Z,11.33
2019-04-07T05:07:27.530Z,11.31
2019-04-07T05:08:27.513Z,11.34
2019-04-07T05:09:40.032Z,11.30
2019-04-07T05:10:27.621Z,11.33
2019-04-07T05:11:27.454Z,11.27
2019-04-07T05:12:27.483Z,11.31
2019-04-07T05:13:27.418Z,11.28
2019-04-07T05:14:27.555Z,11.28
2019-04-07T05:15:27.548Z,11.27
2019-04-07T05:16:27.619Z,11.25
2019-04-07T05:17:27.523Z,11.34
2019-04-07T05:18:27.755Z,11.28
2019-04-07T05:19:27.309Z,11.34
2019-04-07T05:20:27.292Z,11.25
2019-04-07T05:21:27.376Z,11.27
2019-04-07T05:22:27.960Z,11.30
2019-04-07T05:23:27.244Z,11.31
2019-04-07T05:24:27.406Z,11.31
2019-04-07T05:25:27.395Z,11.28
2019-04-07T05:26:27.176Z,11.31
2019-04-07T05:27:27.678Z,11.38
2019-04-07T05:28:27.729Z,11.27
2019-04-07T05:29:27.121Z,11.30
2019-04-07T05:30:27.101Z,11.31
2019-04-07T05:31:27.096Z,11.36
2019-04-07T05:32:27.068Z,11.37
2019-04-07T05:33:27.772Z,11.37
2019-04-07T05:34:27.029Z,11.31
2019-04-07T05:35:27.545Z,11.28
2019-04-07T05:36:26.993Z,11.37
2019-04-07T05:37:26.972Z,11.36
2019-04-07T05:38:26.956Z,11.40
2019-04-07T05:39:27.236Z,11.40
2019-04-07T05:40:26.918Z,11.34
2019-04-07T05:41:27.202Z,11.34
2019-04-07T05:42:26.881Z,11.41
2019-04-07T05:43:27.376Z,11.45
2019-04-07T05:44:26.864Z,11.37
2019-04-07T05:45:27.057Z,11.34
2019-04-07T05:46:28.324Z,11.52
2019-04-07T05:47:26.793Z,11.49
2019-04-07T05:48:26.777Z,11.48
2019-04-07T05:49:27.125Z,11.49
2019-04-07T05:50:27.484Z,11.61
2019-04-07T05:51:29.940Z,11.59
2019-04-07T05:52:27.252Z,11.67
2019-04-07T05:53:26.690Z,11.74
2019-04-07T05:54:27.463Z,11.77
2019-04-07T05:55:27.134Z,11.84
2019-04-07T05:56:28.359Z,11.93
2019-04-07T05:57:30.885Z,11.96
2019-04-07T05:58:26.827Z,11.99
2019-04-07T05:59:26.570Z,12.00
2019-04-07T06:00:26.553Z,12.14
2019-04-07T06:01:26.750Z,12.17
2019-04-07T06:02:27.295Z,12.22
2019-04-07T06:03:26.498Z,12.28
2019-04-07T06:04:27.046Z,12.30
2019-04-07T06:05:26.510Z,12.36
2019-04-07T06:06:26.905Z,12.46
2019-04-07T06:07:29.614Z,12.43
2019-04-07T06:08:32.622Z,12.48
2019-04-07T06:09:26.487Z,12.53
2019-04-07T06:10:28.703Z,12.59
2019-04-07T06:11:27.001Z,12.63
2019-04-07T06:12:26.334Z,12.63
2019-04-07T06:13:26.320Z,12.71
2019-04-07T06:14:26.810Z,12.83
2019-04-07T06:15:26.292Z,12.83
2019-04-07T06:16:26.757Z,12.95
2019-04-07T06:17:27.448Z,12.95
2019-04-07T06:18:26.230Z,12.96
2019-04-07T06:19:26.220Z,13.02
2019-04-07T06:20:26.291Z,13.05
2019-04-07T06:21:26.225Z,13.09
2019-04-07T06:22:26.160Z,13.16
2019-04-07T06:23:29.486Z,13.26
2019-04-07T06:24:26.861Z,13.14
2019-04-07T06:25:27.220Z,13.26
2019-04-07T06:26:26.522Z,13.29
2019-04-07T06:27:28.683Z,13.29
2019-04-07T06:28:26.763Z,13.36
2019-04-07T06:29:26.460Z,13.32
2019-04-07T06:30:28.105Z,13.42
2019-04-07T06:31:27.080Z,13.46
2019-04-07T06:32:26.677Z,13.55
2019-04-07T06:33:26.434Z,13.60
2019-04-07T06:34:26.533Z,13.55
2019-04-07T06:35:26.056Z,13.54
2019-04-07T06:36:26.782Z,13.67
2019-04-07T06:37:29.294Z,13.76
2019-04-07T06:38:33.060Z,13.78
2019-04-07T06:39:26.637Z,13.76
2019-04-07T06:40:25.853Z,13.88
2019-04-07T06:41:30.136Z,13.83
2019-04-07T06:42:26.668Z,13.94
2019-04-07T06:43:25.853Z,13.96
2019-04-07T06:44:25.786Z,14.11
2019-04-07T06:45:25.766Z,14.16
2019-04-07T06:46:28.509Z,14.22
2019-04-07T06:47:25.972Z,14.26
2019-04-07T06:48:25.720Z,14.44
2019-04-07T06:49:28.429Z,14.38
2019-04-07T06:50:25.868Z,14.46
2019-04-07T06:51:29.208Z,14.56
2019-04-07T06:52:25.886Z,14.67
2019-04-07T06:53:25.899Z,14.82
2019-04-07T06:54:25.622Z,15.05
2019-04-07T06:55:28.005Z,15.30
2019-04-07T06:56:25.979Z,15.56
2019-04-07T06:57:25.574Z,15.68
2019-04-07T06:58:25.619Z,15.91
2019-04-07T06:59:26.166Z,16.21
2019-04-07T07:00:25.866Z,16.70
2019-04-07T07:01:26.590Z,17.32
2019-04-07T07:02:29.057Z,17.69
2019-04-07T07:03:25.496Z,18.23
2019-04-07T07:04:25.499Z,18.63
2019-04-07T07:05:25.471Z,19.27
2019-04-07T07:06:26.727Z,19.49
2019-04-07T07:07:26.002Z,19.64
2019-04-07T07:08:26.753Z,19.93
2019-04-07T07:09:26.466Z,20.26
2019-04-07T07:10:29.838Z,20.53
2019-04-07T07:11:29.316Z,20.65
2019-04-07T07:12:32.274Z,20.68
2019-04-07T07:13:29.930Z,20.49
2019-04-07T07:14:34.773Z,20.79
2019-04-07T07:15:25.617Z,20.95
2019-04-07T07:16:26.096Z,21.25
2019-04-07T07:17:25.721Z,21.35
2019-04-07T07:18:25.486Z,21.53
2019-04-07T07:19:27.418Z,21.74
2019-04-07T07:20:28.796Z,21.98
2019-04-07T07:21:25.333Z,22.07
2019-04-07T07:22:25.753Z,22.40
2019-04-07T07:23:25.342Z,22.58
2019-04-07T07:24:26.528Z,22.36
2019-04-07T07:25:26.609Z,22.09
2019-04-07T07:26:25.386Z,22.27
2019-04-07T07:27:25.877Z,22.56
2019-04-07T07:28:25.295Z,22.67
2019-04-07T07:29:26.679Z,22.92
2019-04-07T07:30:26.002Z,23.36
2019-04-07T07:31:26.349Z,23.59
2019-04-07T07:32:25.925Z,23.59
2019-04-07T07:33:25.270Z,23.82
2019-04-07T07:34:25.254Z,23.63
2019-04-07T07:35:25.613Z,23.92
2019-04-07T07:36:25.247Z,23.91
2019-04-07T07:37:26.216Z,23.34
2019-04-07T07:38:27.728Z,23.37
2019-04-07T07:39:25.238Z,23.73
2019-04-07T07:40:25.447Z,24.13
2019-04-07T07:41:25.431Z,24.59
2019-04-07T07:42:25.711Z,24.31
2019-04-07T07:43:27.974Z,23.37
2019-04-07T07:44:25.222Z,23.89
2019-04-07T07:45:25.221Z,24.06
2019-04-07T07:46:25.219Z,23.61
2019-04-07T07:47:25.420Z,23.34
2019-04-07T07:48:27.961Z,22.88
2019-04-07T07:49:25.817Z,23.55
2019-04-07T07:50:25.404Z,24.34
2019-04-07T07:51:25.712Z,24.85
2019-04-07T07:52:25.507Z,25.21
2019-04-07T07:53:28.131Z,24.75
2019-04-07T07:54:27.837Z,25.43
2019-04-07T07:55:25.320Z,25.93
2019-04-07T07:56:25.599Z,25.33
2019-04-07T07:57:25.196Z,25.96
2019-04-07T07:58:27.919Z,26.48
2019-04-07T07:59:25.201Z,26.82
2019-04-07T08:00:25.695Z,26.64
2019-04-07T08:01:25.673Z,26.80
2019-04-07T08:02:25.201Z,27.19
2019-04-07T08:03:25.189Z,27.22
2019-04-07T08:04:26.757Z,27.57
2019-04-07T08:05:29.831Z,27.80
2019-04-07T08:06:25.194Z,27.12
2019-04-07T08:07:25.945Z,27.35
2019-04-07T08:08:25.417Z,26.52
2019-04-07T08:09:26.321Z,26.24
2019-04-07T08:10:26.647Z,26.12
2019-04-07T08:11:25.189Z,26.43
2019-04-07T08:12:25.536Z,27.01
2019-04-07T08:13:25.818Z,26.90
2019-04-07T08:14:25.982Z,26.65
2019-04-07T08:15:29.685Z,26.31
2019-04-07T08:16:29.352Z,26.28
2019-04-07T08:17:25.914Z,26.05
2019-04-07T08:18:25.189Z,26.31
2019-04-07T08:19:29.292Z,26.38
2019-04-07T08:20:25.190Z,26.00
2019-04-07T08:21:25.828Z,26.33
2019-04-07T08:22:30.668Z,26.58
2019-04-07T08:23:25.356Z,26.80
2019-04-07T08:24:25.190Z,26.93
2019-04-07T08:25:25.830Z,27.22
2019-04-07T08:26:26.028Z,27.17
2019-04-07T08:27:29.213Z,27.53
2019-04-07T08:28:25.404Z,27.70
2019-04-07T08:29:25.787Z,27.72
2019-04-07T08:30:26.053Z,28.20
2019-04-07T08:31:25.187Z,28.30
2019-04-07T08:32:28.050Z,28.43
2019-04-07T08:33:28.764Z,28.42
2019-04-07T08:34:25.521Z,27.97
2019-04-07T08:35:25.194Z,28.37
2019-04-07T08:36:25.892Z,28.15
2019-04-07T08:37:25.227Z,27.88
2019-04-07T08:38:27.137Z,28.03
2019-04-07T08:39:29.060Z,27.35
2019-04-07T08:40:25.313Z,26.95
2019-04-07T08:41:25.589Z,26.15
2019-04-07T08:42:25.313Z,25.59
2019-04-07T08:43:25.193Z,26.23
2019-04-07T08:44:27.511Z,26.27
2019-04-07T08:45:26.764Z,25.96
2019-04-07T08:46:25.195Z,26.19
2019-04-07T08:47:25.816Z,26.07
2019-04-07T08:48:25.620Z,25.75
2019-04-07T08:49:25.618Z,26.05
2019-04-07T08:50:27.715Z,26.51
2019-04-07T08:51:29.348Z,26.36
2019-04-07T08:52:25.947Z,27.25
2019-04-07T08:53:25.209Z,27.64
2019-04-07T08:54:25.201Z,27.69
2019-04-07T08:55:25.651Z,27.41
2019-04-07T08:56:26.632Z,27.95
2019-04-07T08:57:27.230Z,28.10
2019-04-07T08:58:28.753Z,28.46
2019-04-07T08:59:25.899Z,28.80
2019-04-07T09:00:26.094Z,29.18
2019-04-07T09:01:28.640Z,29.17
2019-04-07T09:02:28.288Z,29.04
2019-04-07T09:03:25.194Z,28.77
2019-04-07T09:04:25.279Z,28.65
2019-04-07T09:05:28.821Z,27.95
2019-04-07T09:06:27.415Z,27.90
2019-04-07T09:07:25.201Z,28.03
2019-04-07T09:08:25.195Z,28.66
2019-04-07T09:09:32.548Z,28.66
2019-04-07T09:10:25.893Z,28.84
2019-04-07T09:11:25.188Z,29.28
2019-04-07T09:12:28.921Z,29.06
2019-04-07T09:13:25.191Z,29.04
2019-04-07T09:14:25.190Z,28.91
2019-04-07T09:15:25.965Z,27.80
2019-04-07T09:16:25.185Z,27.95
2019-04-07T09:17:32.909Z,27.40
2019-04-07T09:18:25.183Z,27.35
2019-04-07T09:19:25.270Z,27.66
2019-04-07T09:20:25.622Z,27.70
2019-04-07T09:21:37.998Z,28.37
2019-04-07T09:22:25.322Z,28.79
2019-04-07T09:23:27.026Z,29.18
2019-04-07T09:24:29.972Z,29.71
2019-04-07T09:25:25.167Z,29.98
2019-04-07T09:26:25.165Z,30.40
2019-04-07T09:27:25.774Z,30.62
2019-04-07T09:28:25.158Z,30.71
2019-04-07T09:29:27.434Z,30.75
2019-04-07T09:30:25.166Z,30.96
2019-04-07T09:31:25.154Z,30.51
2019-04-07T09:32:25.372Z,30.49
2019-04-07T09:33:25.147Z,30.86
2019-04-07T09:34:25.161Z,31.15
2019-04-07T09:35:26.357Z,31.41
2019-04-07T09:36:25.146Z,31.63
2019-04-07T09:37:25.970Z,31.56
2019-04-07T09:38:27.128Z,31.78
2019-04-07T09:39:25.136Z,31.63
2019-04-07T09:40:25.323Z,31.39
2019-04-07T09:41:27.823Z,30.88
2019-04-07T09:42:25.880Z,28.98
2019-04-07T09:43:25.125Z,29.12
2019-04-07T09:44:25.417Z,28.87
2019-04-07T09:45:25.440Z,28.28
2019-04-07T09:46:25.112Z,28.91
2019-04-07T09:47:25.907Z,28.89
2019-04-07T09:48:25.110Z,27.40
2019-04-07T09:49:25.669Z,27.37
2019-04-07T09:50:27.944Z,26.61
2019-04-07T09:51:25.438Z,27.15
2019-04-07T09:52:25.094Z,27.54
2019-04-07T09:53:25.087Z,27.47
2019-04-07T09:54:25.197Z,26.75
2019-04-07T09:55:26.710Z,26.90
2019-04-07T09:56:27.224Z,26.89
2019-04-07T09:57:25.897Z,27.05
2019-04-07T09:58:25.219Z,27.40
2019-04-07T09:59:25.058Z,26.94
2019-04-07T10:00:25.203Z,26.58
2019-04-07T10:01:27.639Z,25.89
2019-04-07T10:02:25.111Z,25.73
2019-04-07T10:03:25.029Z,25.77
2019-04-07T10:04:25.650Z,26.05
2019-04-07T10:05:25.014Z,26.43
2019-04-07T10:06:25.017Z,26.61
2019-04-07T10:07:25.145Z,26.64
2019-04-07T10:08:25.015Z,26.61
2019-04-07T10:09:25.641Z,27.12
2019-04-07T10:10:24.983Z,27.37
2019-04-07T10:11:25.223Z,27.79
2019-04-07T10:12:27.727Z,28.25
2019-04-07T10:13:24.976Z,28.69
2019-04-07T10:14:25.788Z,29.09
2019-04-07T10:15:25.599Z,29.22
2019-04-07T10:16:25.755Z,28.86
2019-04-07T10:17:26.040Z,28.96
2019-04-07T10:18:25.222Z,28.65
2019-04-07T10:19:25.563Z,28.05
2019-04-07T10:20:25.801Z,28.35
2019-04-07T10:21:25.331Z,28.34
2019-04-07T10:22:25.561Z,28.07
2019-04-07T10:23:25.353Z,27.83
2019-04-07T10:24:24.900Z,27.00
2019-04-07T10:25:26.915Z,26.56
2019-04-07T10:26:25.607Z,26.26
2019-04-07T10:27:24.881Z,26.10
2019-04-07T10:28:25.530Z,26.33
2019-04-07T10:29:25.392Z,26.34
2019-04-07T10:30:24.852Z,26.26
2019-04-07T10:31:24.846Z,26.49
2019-04-07T10:32:26.786Z,26.45
2019-04-07T10:33:24.835Z,26.11
2019-04-07T10:34:24.940Z,25.78
2019-04-07T10:35:24.833Z,25.73
2019-04-07T10:36:25.394Z,26.07
2019-04-07T10:37:25.455Z,26.07
2019-04-07T10:38:24.835Z,26.16
2019-04-07T10:39:25.064Z,24.90
2019-04-07T10:40:25.460Z,24.79
2019-04-07T10:41:24.783Z,25.04
2019-04-07T10:42:24.769Z,25.18
2019-04-07T10:43:25.039Z,25.26
2019-04-07T10:44:25.000Z,25.46
2019-04-07T10:45:24.984Z,25.21
2019-04-07T10:46:24.738Z,24.99
2019-04-07T10:47:25.539Z,25.03
2019-04-07T10:48:25.797Z,25.43
2019-04-07T10:49:24.767Z,25.58
2019-04-07T10:50:24.711Z,25.71
2019-04-07T10:51:25.334Z,25.71
2019-04-07T10:52:24.687Z,25.89
2019-04-07T10:53:24.687Z,26.26
2019-04-07T10:54:25.223Z,26.61
2019-04-07T10:55:24.670Z,26.73
2019-04-07T10:56:25.411Z,26.68
2019-04-07T10:57:24.660Z,26.79
2019-04-07T10:58:24.857Z,26.88
2019-04-07T10:59:24.646Z,26.93
2019-04-07T11:00:24.632Z,26.94
2019-04-07T11:01:24.625Z,26.90
2019-04-07T11:02:24.977Z,26.65
2019-04-07T11:03:24.910Z,26.24
2019-04-07T11:04:24.622Z,25.85
2019-04-07T11:05:24.600Z,25.74
2019-04-07T11:06:24.593Z,25.89
2019-04-07T11:07:24.957Z,25.96
2019-04-07T11:08:24.574Z,25.88
2019-04-07T11:09:24.566Z,25.30
2019-04-07T11:10:34.482Z,25.15
2019-04-07T11:11:24.602Z,24.96
2019-04-07T11:12:25.087Z,24.44
2019-04-07T11:13:24.535Z,23.64
2019-04-07T11:14:25.047Z,23.74
2019-04-07T11:15:24.916Z,24.21
2019-04-07T11:16:24.782Z,24.84
2019-04-07T11:17:25.258Z,25.23
2019-04-07T11:18:25.263Z,25.01
2019-04-07T11:19:27.309Z,25.63
2019-04-07T11:20:24.823Z,25.95
2019-04-07T11:21:24.893Z,26.21
2019-04-07T11:22:24.462Z,26.26
2019-04-07T11:23:25.220Z,26.31
2019-04-07T11:24:24.445Z,26.57
2019-04-07T11:25:24.435Z,26.11
2019-04-07T11:26:25.277Z,25.93
2019-04-07T11:27:24.535Z,25.16
2019-04-07T11:28:24.412Z,24.93
2019-04-07T11:29:25.082Z,24.99
2019-04-07T11:30:24.544Z,24.91
2019-04-07T11:31:24.396Z,24.99
2019-04-07T11:32:24.387Z,25.03
2019-04-07T11:33:24.559Z,25.49
2019-04-07T11:34:24.370Z,25.78
2019-04-07T11:35:26.777Z,26.10
2019-04-07T11:36:24.545Z,26.26
2019-04-07T11:37:24.535Z,26.23
2019-04-07T11:38:24.329Z,26.03
2019-04-07T11:39:24.453Z,25.71
2019-04-07T11:40:24.584Z,25.28
2019-04-07T11:41:27.341Z,25.28
2019-04-07T11:42:25.073Z,25.28
2019-04-07T11:43:24.707Z,25.63
2019-04-07T11:44:24.769Z,25.88
2019-04-07T11:45:24.619Z,25.59
2019-04-07T11:46:24.402Z,25.48
2019-04-07T11:47:24.262Z,25.63
2019-04-07T11:48:24.242Z,25.61
2019-04-07T11:49:24.657Z,25.52
2019-04-07T11:50:24.231Z,25.36
2019-04-07T11:51:24.383Z,24.97
2019-04-07T11:52:24.607Z,24.82
2019-04-07T11:53:24.219Z,24.65
2019-04-07T11:54:24.203Z,24.96
2019-04-07T11:55:26.214Z,24.68
2019-04-07T11:56:24.898Z,24.70
2019-04-07T11:57:24.166Z,24.94
2019-04-07T11:58:31.465Z,25.30
2019-04-07T11:59:24.151Z,25.58
2019-04-07T12:00:24.895Z,25.95
2019-04-07T12:01:24.136Z,25.85
2019-04-07T12:02:24.369Z,25.61
2019-04-07T12:03:26.868Z,25.49
2019-04-07T12:04:24.110Z,25.56
2019-04-07T12:05:25.041Z,25.49
2019-04-07T12:06:25.429Z,25.46
2019-04-07T12:07:25.039Z,25.63
2019-04-07T12:08:25.168Z,25.58
2019-04-07T12:09:24.065Z,25.58
2019-04-07T12:10:24.073Z,25.66
2019-04-07T12:11:24.603Z,25.63
2019-04-07T12:12:24.606Z,25.70
2019-04-07T12:13:24.033Z,25.26
2019-04-07T12:14:24.455Z,25.06
2019-04-07T12:15:26.724Z,25.28
2019-04-07T12:16:26.639Z,25.48
2019-04-07T12:17:24.521Z,25.61
2019-04-07T12:18:23.995Z,25.51
2019-04-07T12:19:24.905Z,24.93
2019-04-07T12:20:27.019Z,24.60
2019-04-07T12:21:25.474Z,24.53
2019-04-07T12:22:23.961Z,24.44
2019-04-07T12:23:27.104Z,24.28
2019-04-07T12:24:27.503Z,24.48
2019-04-07T12:25:23.933Z,24.43
2019-04-07T12:26:24.719Z,24.89
2019-04-07T12:27:24.078Z,24.99
2019-04-07T12:28:24.650Z,25.16
2019-04-07T12:29:24.413Z,25.49
2019-04-07T12:30:23.891Z,25.58
2019-04-07T12:31:23.952Z,25.37
2019-04-07T12:32:23.977Z,25.04
2019-04-07T12:33:23.863Z,25.22
2019-04-07T12:34:23.852Z,24.78
2019-04-07T12:35:23.845Z,24.53
2019-04-07T12:36:29.465Z,24.79
2019-04-07T12:37:23.848Z,25.12
2019-04-07T12:38:23.820Z,25.11
2019-04-07T12:39:23.810Z,24.90
2019-04-07T12:40:23.964Z,25.19
2019-04-07T12:41:24.485Z,25.37
2019-04-07T12:42:23.783Z,25.51
2019-04-07T12:43:23.782Z,25.45
2019-04-07T12:44:23.764Z,25.59
2019-04-07T12:45:23.761Z,25.46
2019-04-07T12:46:24.562Z,25.55
2019-04-07T12:47:23.775Z,25.41
2019-04-07T12:48:27.835Z,25.18
2019-04-07T12:49:24.286Z,25.26
2019-04-07T12:50:24.089Z,24.89
2019-04-07T12:51:23.706Z,24.63
2019-04-07T12:52:26.119Z,24.68